Historyczne dane pomiarowe

Dodano dane terminowe – wersja testowa.

Dane z okresu 1951-2019

Wersja bazy: 1.34 [2019-03-16, lista zmian], aktualizacja planowana na 2019-04-15

Dane meteo z obszaru Polski uzyskane na podstawie danych udostępnionych przez Instytut Meteorologii i Gospodarki Wodnej – Państwowy Instytut Badawczy.

 

Wybierz Datę:    

       

TemperaturaWilgotnośćZachmurzenieWiatrCiśnienieWidzialnośćZjawiska
 Data    tng td wb rh cc ccl cl cm ch dir g1 g2 mslp ppp      
1999-08-05 00:00:00 11.0--- 9.5 10.291wxwx1wx--1016.1 991.3 0.0---wx
1999-08-05 01:00:00 10.0--- 9.1 9.594wxwx2wx--1016.3 991.4----wx
1999-08-05 02:00:00 10.4--- 8.9 9.690wxwx0wx--1016.1 991.2----wx
1999-08-05 03:00:00 9.1--- 7.9 8.592wxwxwx2wx--1016.2 991.2----wx
1999-08-05 04:00:00 8.8--- 7.6 8.292wxwxwx1wx--1016.4 991.4----wx
1999-08-05 05:00:00 9.6--- 8.5 9.093wxwxwxwx1wx--1016.5 991.6----wx
1999-08-05 06:00:00 12.8--- 10.3 11.485wxwxwx0wx--1016.5 991.8 0.0---wx
1999-08-05 07:00:00 17.4--- 12.1 14.371wxwxwx1wx--1016.1 991.8----wx
1999-08-05 08:00:00 21.6--- 10.7 15.250wxwx2wx--1015.7 991.8----wx
1999-08-05 09:00:00 23.4--- 13.4 17.253wxwxwx2wx--1015.2 991.4----wx
1999-08-05 10:00:00 25.0--- 10.3 16.340wxwxwxwx2wx--1014.7 991.1----wx
1999-08-05 11:00:00 25.4--- 10.4 16.539wxwxwxwx2wx--1014.4 990.8----wx
1999-08-05 12:00:00 26.4--- 7.6 15.730wxwxwxwx1wx--1014.0 990.5 0.0---wx
1999-08-05 13:00:00 26.8--- 9.5 16.634wxwxwxwx2wx--1013.6 990.1----wx
1999-08-05 14:00:00 27.0--- 10.2 17.035wxwxwxwx1wx--1013.2 989.8----wx
1999-08-05 15:00:00 26.6--- 10.8 17.137wxwxwxwxwx2wx--1013.3 989.8----wx
1999-08-05 16:00:00 26.2--- 11.1 17.139wxwxwxwx2wx--1013.0 989.5----wx
1999-08-05 17:00:00 25.2--- 10.1 16.339wxwxwxwxwx2wx--1012.6 989.0----wx
1999-08-05 18:00:00 23.6--- 12.6 16.950wxwxwxwx1wx--1012.8 989.1 0.0---wx
1999-08-05 19:00:00 21.5--- 13.3 16.560wxwxwxwx2wx--1013.4 989.5----wx
1999-08-05 20:00:00 21.0--- 13.3 16.361wxwxwxwx2wx--1013.3 989.4----wx
1999-08-05 21:00:00 20.1--- 13.6 16.166wxwxwxwx1wx--1013.5 989.5----wx
1999-08-05 22:00:00 19.0--- 14.1 16.073wxwxwxwx1wx--1013.2 989.1----wx
1999-08-05 23:00:00 18.9--- 14.5 16.276wxwxwxwx0wx--1013.3 989.2----wx

 

Źródłem pochodzenia danych jest Instytut Meteorologii i Gospodarki Wodnej – Państwowy Instytut Badawczy. Dane Instytutu Meteorologii i Gospodarki Wodnej – Państwowego Instytutu Badawczego zostały przetworzone.

Dane źródłowe można odnaleźć na stronie https://dane.imgw.pl